KCMX/CMX METAR and TAF weather

Enter ICAO airport designator
Station Type Date Time Source
KCMX METAR 2021/05/15 00:53 UTC NOAA

KCMX 150053Z AUTO 07004KT 10SM BKN100 16/01 A3012 RMK AO2 SLP199 T01610011


Station Type Date Time Source
KCMX Decoded METAR 2021/05/15 00:53 UTC NOAA

HANCOCK HOUGHTON CTY. MEMO, MI, United States (KCMX) 47-10N 088-29W 326M
May 14, 2021 - 08:53 PM EDT / 2021.05.15 0053 UTC
Wind: from the ENE (070 degrees) at 5 MPH (4 KT):0
Visibility: 10 mile(s):0
Sky conditions: mostly cloudy
Temperature: 61.0 F (16.1 C)
Dew Point: 34.0 F (1.1 C)
Relative Humidity: 36%
Pressure (altimeter): 30.12 in. Hg (1019 hPa)
ob: KCMX 150053Z AUTO 07004KT 10SM BKN100 16/01 A3012 RMK AO2 SLP199 T01610011
cycle: 1

Station Type Date Time Source
KCMX TAF 2021/05/14 23:33 UTC NOAA

TAF
AMD KCMX 142231Z 1423/1518 32012G20KT P6SM SCT120
FM150100 VRB03KT P6SM SCT120
FM151500 27008KT P6SM BKN090

Example: see airport list